Time;durP1;ratioP1;P1;durP2;ratioP2;P2;SDS_P1;SDS_P2;PMS_P1;PMS_P2;Temp;Humidity;BMP_temperature;BMP_pressure;BME280_temperature;BME280_humidity;BME280_pressure;Samples;Min_cycle;Max_cycle;Signal;HPM_P1;HPM_P2
2023/09/23 00:01:37;;;;;;;6.32;3.58;;;13.10;99.90;;;;;;5030554;28;20053;-88
2023/09/23 00:04:03;;;;;;;4.10;3.70;;;13.10;99.90;;;;;;5031083;28;20124;-87
2023/09/23 00:06:29;;;;;;;4.63;4.03;;;13.10;99.90;;;;;;5030739;28;20049;-88
2023/09/23 00:08:56;;;;;;;6.30;3.83;;;13.10;99.90;;;;;;5014707;28;20045;-88
2023/09/23 00:11:22;;;;;;;4.43;3.60;;;13.10;99.90;;;;;;5014245;28;20045;-87
2023/09/23 00:13:47;;;;;;;4.43;4.03;;;13.10;99.90;;;;;;5013920;28;20041;-88
2023/09/23 00:16:16;;;;;;;4.25;3.85;;;13.10;99.90;;;;;;5014403;28;20201;-88
2023/09/23 00:18:44;;;;;;;6.25;3.58;;;13.10;99.90;;;;;;5014712;28;20116;-88
2023/09/23 00:21:12;;;;;;;6.18;3.85;;;13.10;99.90;;;;;;5011169;28;20041;-80
2023/09/23 00:23:38;;;;;;;5.28;4.00;;;13.10;99.90;;;;;;4994429;28;20366;-79
2023/09/23 00:26:06;;;;;;;4.65;4.20;;;13.10;99.90;;;;;;5008449;28;20470;-79
2023/09/23 00:28:32;;;;;;;5.75;4.30;;;13.10;99.90;;;;;;4997272;28;20033;-88
2023/09/23 00:31:11;;;;;;;5.75;4.13;;;13.10;99.90;;;;;;4998422;28;20378;-87
2023/09/23 00:33:38;;;;;;;4.28;3.40;;;13.00;99.90;;;;;;5004939;28;20076;-88
2023/09/23 00:36:08;;;;;;;4.70;3.55;;;13.00;99.90;;;;;;4982771;28;20511;-88
2023/09/23 00:38:35;;;;;;;5.50;3.45;;;13.00;99.90;;;;;;5012554;28;20044;-88
2023/09/23 00:41:01;;;;;;;3.50;3.20;;;12.90;99.90;;;;;;5014028;28;20049;-88
2023/09/23 00:43:27;;;;;;;4.93;3.35;;;12.90;99.90;;;;;;5030298;28;20087;-88
2023/09/23 00:45:56;;;;;;;3.60;3.25;;;12.90;99.90;;;;;;5013955;28;20041;-88
2023/09/23 00:48:22;;;;;;;4.78;3.15;;;12.90;99.90;;;;;;5030411;28;20033;-88
2023/09/23 00:50:50;;;;;;;3.10;2.80;;;12.80;99.90;;;;;;5013756;28;20029;-89
2023/09/23 00:53:16;;;;;;;2.65;2.45;;;12.80;99.90;;;;;;4997641;28;20412;-88
2023/09/23 00:55:51;;;;;;;3.20;2.20;;;12.80;99.90;;;;;;5030436;28;20033;-88
2023/09/23 00:58:20;;;;;;;2.20;2.00;;;12.80;99.90;;;;;;5019378;28;20452;-88
2023/09/23 01:00:47;;;;;;;3.00;2.08;;;12.80;99.90;;;;;;4999118;28;20065;-88
2023/09/23 01:03:13;;;;;;;2.00;1.70;;;12.80;99.90;;;;;;5013957;28;20059;-89
2023/09/23 01:05:40;;;;;;;2.20;1.95;;;12.70;99.90;;;;;;4997421;28;20048;-87
2023/09/23 01:08:07;;;;;;;1.67;1.55;;;12.70;99.90;;;;;;5013721;28;20041;-89
2023/09/23 01:10:33;;;;;;;2.00;1.80;;;12.80;99.90;;;;;;5030312;28;20042;-88
2023/09/23 01:12:59;;;;;;;1.73;1.48;;;12.70;99.90;;;;;;5024935;28;20092;-89
2023/09/23 01:15:27;;;;;;;2.28;2.00;;;12.70;99.90;;;;;;5030472;28;20057;-85
2023/09/23 01:17:54;;;;;;;2.45;1.80;;;12.70;99.90;;;;;;5013133;28;20041;-87
2023/09/23 01:20:21;;;;;;;2.83;1.88;;;12.70;99.90;;;;;;4997056;28;20052;-88
2023/09/23 01:22:47;;;;;;;4.38;2.15;;;12.70;99.90;;;;;;5005118;28;20714;-87
2023/09/23 01:25:13;;;;;;;2.55;2.00;;;12.60;99.90;;;;;;5023514;28;20091;-88
2023/09/23 01:27:40;;;;;;;2.90;1.98;;;12.60;99.90;;;;;;5000816;28;20042;-88
2023/09/23 01:30:07;;;;;;;4.10;2.30;;;12.60;99.90;;;;;;5017617;28;20175;-86
2023/09/23 01:32:42;;;;;;;2.35;2.03;;;12.60;99.90;;;;;;5017550;28;20447;-87
2023/09/23 01:35:09;;;;;;;3.72;2.35;;;12.60;99.90;;;;;;5033699;28;20393;-88
2023/09/23 01:37:38;;;;;;;2.92;2.40;;;12.60;99.90;;;;;;5017631;28;20041;-85
2023/09/23 01:40:05;;;;;;;3.65;2.50;;;12.50;99.90;;;;;;5017273;28;20037;-87
2023/09/23 01:42:32;;;;;;;2.45;2.17;;;12.50;99.90;;;;;;5000873;28;20124;-87
2023/09/23 01:44:58;;;;;;;4.22;2.65;;;12.50;99.90;;;;;;5032787;28;20037;-87
2023/09/23 01:47:25;;;;;;;3.65;3.05;;;12.50;99.90;;;;;;5013261;28;20048;-88
2023/09/23 01:49:51;;;;;;;3.85;3.00;;;12.50;99.90;;;;;;5000809;28;20072;-87
2023/09/23 01:52:17;;;;;;;3.85;3.42;;;12.50;99.90;;;;;;5016539;28;20053;-88
2023/09/23 01:54:44;;;;;;;4.13;3.50;;;12.50;99.90;;;;;;5016869;28;20033;-87
2023/09/23 01:57:16;;;;;;;4.07;3.40;;;12.50;99.90;;;;;;5031089;28;20076;-87
2023/09/23 01:59:45;;;;;;;;;;;12.50;99.90;;;;;;5012962;28;20085;-88
2023/09/23 02:02:11;;;;;;;5.72;3.70;;;12.40;99.90;;;;;;4999124;28;19925;-86
2023/09/23 02:04:39;;;;;;;4.43;4.03;;;12.40;99.90;;;;;;5000081;28;20120;-87
2023/09/23 02:07:07;;;;;;;4.85;3.60;;;12.50;99.90;;;;;;5011439;28;20095;-86
2023/09/23 02:09:37;;;;;;;4.90;3.80;;;12.40;99.90;;;;;;5033300;28;20053;-88
2023/09/23 02:12:03;;;;;;;4.65;3.75;;;12.50;99.90;;;;;;4995311;28;20045;-88
2023/09/23 02:14:30;;;;;;;5.20;3.78;;;12.50;99.90;;;;;;4994964;28;20041;-87
2023/09/23 02:16:56;;;;;;;4.82;3.72;;;12.40;99.90;;;;;;5015482;28;20048;-87
2023/09/23 02:19:21;;;;;;;5.53;3.78;;;12.50;99.90;;;;;;4999265;28;20038;-88
2023/09/23 02:21:51;;;;;;;4.70;4.20;;;12.50;99.90;;;;;;4999418;28;20033;-87
2023/09/23 02:24:20;;;;;;;4.65;3.88;;;12.50;99.90;;;;;;5011987;28;20045;-87
2023/09/23 02:26:46;;;;;;;3.70;3.30;;;12.50;99.90;;;;;;5024271;28;20124;-87
2023/09/23 02:29:15;;;;;;;4.25;3.65;;;12.50;99.90;;;;;;5000063;28;20128;-85
2023/09/23 02:31:46;;;;;;;3.58;3.15;;;12.40;99.90;;;;;;4985396;28;20041;-87
2023/09/23 02:34:16;;;;;;;3.93;3.43;;;12.40;99.90;;;;;;5032393;28;20102;-88
2023/09/23 02:36:43;;;;;;;4.57;3.38;;;12.40;99.90;;;;;;5016646;28;20489;-87
2023/09/23 02:39:15;;;;;;;4.75;3.58;;;12.40;99.90;;;;;;5029334;28;20493;-87
2023/09/23 02:41:42;;;;;;;;;;;12.40;99.90;;;;;;5016258;28;20453;-87
2023/09/23 02:44:08;;;;;;;4.57;4.05;;;12.40;99.90;;;;;;5032072;28;20399;-88
2023/09/23 02:46:34;;;;;;;6.60;4.15;;;12.40;99.90;;;;;;5015752;28;20037;-87
2023/09/23 02:49:00;;;;;;;4.32;3.92;;;12.40;99.90;;;;;;4999812;28;20053;-87
2023/09/23 02:51:26;;;;;;;6.55;4.47;;;12.50;99.90;;;;;;5014375;28;20049;-87
2023/09/23 02:53:51;;;;;;;5.85;4.60;;;12.50;99.90;;;;;;4982082;28;20527;-88
2023/09/23 02:56:18;;;;;;;5.40;4.28;;;12.40;99.90;;;;;;5030673;28;20044;-87
2023/09/23 02:58:44;;;;;;;4.88;4.38;;;12.40;99.90;;;;;;5015396;28;20049;-87
2023/09/23 03:01:14;;;;;;;4.85;4.35;;;12.40;99.90;;;;;;5031784;28;20065;-87
2023/09/23 03:03:40;;;;;;;4.63;4.13;;;12.40;99.90;;;;;;5031236;28;20041;-87
2023/09/23 03:06:07;;;;;;;5.82;4.53;;;12.30;99.90;;;;;;5014207;28;20033;-87
2023/09/23 03:08:37;;;;;;;6.20;4.40;;;12.30;99.90;;;;;;5000456;28;20120;-87
2023/09/23 03:11:06;;;;;;;7.18;4.93;;;12.30;99.90;;;;;;4980466;28;20143;-88
2023/09/23 03:13:34;;;;;;;6.25;4.95;;;12.30;99.90;;;;;;4996108;28;20042;-87
2023/09/23 03:16:10;;;;;;;5.07;4.47;;;12.30;99.90;;;;;;5017540;28;20053;-87
2023/09/23 03:18:42;;;;;;;6.95;5.15;;;12.20;99.90;;;;;;5007935;28;20055;-87
2023/09/23 03:21:08;;;;;;;6.20;4.90;;;12.20;99.90;;;;;;5015453;28;20071;-87
2023/09/23 03:23:39;;;;;;;6.10;5.40;;;12.20;99.90;;;;;;5010913;28;20029;-87
2023/09/23 03:26:09;;;;;;;6.53;5.35;;;12.10;99.90;;;;;;5022768;28;20401;-86
2023/09/23 03:28:42;;;;;;;6.75;5.60;;;12.10;99.90;;;;;;5028458;28;20065;-87
2023/09/23 03:31:08;;;;;;;6.85;5.60;;;12.10;99.90;;;;;;5019803;28;20062;-87
2023/09/23 03:33:35;;;;;;;7.47;6.18;;;12.10;99.90;;;;;;5012085;28;20075;-87
2023/09/23 03:36:01;;;;;;;6.82;6.13;;;12.00;99.90;;;;;;5014867;28;20045;-86
2023/09/23 03:38:28;;;;;;;8.00;6.45;;;12.00;99.90;;;;;;5011538;28;20125;-87
2023/09/23 03:41:02;;;;;;;7.40;6.55;;;12.00;99.90;;;;;;5021159;28;20041;-87
2023/09/23 03:43:29;;;;;;;9.70;7.30;;;11.90;99.90;;;;;;5014376;28;20436;-87
2023/09/23 03:45:56;;;;;;;8.77;6.65;;;11.90;99.90;;;;;;5030200;28;20076;-86
2023/09/23 03:48:22;;;;;;;9.60;6.78;;;11.90;99.90;;;;;;5031279;28;20378;-87
2023/09/23 03:50:54;;;;;;;8.27;7.18;;;11.80;99.90;;;;;;5014962;28;20095;-87
2023/09/23 03:53:21;;;;;;;10.70;7.97;;;11.80;99.90;;;;;;5029254;28;20052;-88
2023/09/23 03:55:49;;;;;;;8.48;7.47;;;11.80;99.90;;;;;;4998584;28;20045;-87
2023/09/23 03:58:17;;;;;;;9.27;7.25;;;11.70;99.90;;;;;;5014281;28;20489;-87
2023/09/23 04:00:43;;;;;;;9.35;7.78;;;11.70;99.90;;;;;;4998308;28;20059;-87
2023/09/23 04:03:10;;;;;;;9.73;7.43;;;11.70;99.90;;;;;;5014953;28;20041;-87
2023/09/23 04:05:36;;;;;;;10.00;7.70;;;11.70;99.90;;;;;;5030399;28;20519;-87
2023/09/23 04:08:02;;;;;;;8.80;7.90;;;11.60;99.90;;;;;;5031073;28;20128;-87
2023/09/23 04:10:28;;;;;;;8.85;7.43;;;11.70;99.90;;;;;;5031325;28;20159;-87
2023/09/23 04:12:54;;;;;;;10.18;7.95;;;11.60;99.90;;;;;;5014255;28;20049;-87
2023/09/23 04:15:26;;;;;;;9.40;7.90;;;11.60;99.90;;;;;;5014128;28;20123;-86
2023/09/23 04:17:52;;;;;;;10.60;8.32;;;11.60;99.90;;;;;;5014215;28;20084;-86
2023/09/23 04:20:18;;;;;;;11.00;8.82;;;11.60;99.90;;;;;;5014076;28;20465;-86
2023/09/23 04:22:46;;;;;;;10.82;9.27;;;11.60;99.90;;;;;;5013950;28;20524;-87
2023/09/23 04:25:13;;;;;;;11.35;8.93;;;11.60;99.90;;;;;;5030667;28;20044;-87
2023/09/23 04:27:39;;;;;;;10.90;9.25;;;11.60;99.90;;;;;;5014115;28;20069;-87
2023/09/23 04:30:09;;;;;;;12.68;10.23;;;11.50;99.90;;;;;;5030390;28;20069;-86
2023/09/23 04:32:36;;;;;;;11.73;9.10;;;11.60;99.90;;;;;;4996477;28;20060;-88
2023/09/23 04:35:03;;;;;;;11.10;9.85;;;11.50;99.90;;;;;;5010121;28;20037;-87
2023/09/23 04:37:29;;;;;;;12.95;9.60;;;11.50;99.90;;;;;;4994836;28;20049;-86
2023/09/23 04:39:55;;;;;;;12.88;10.05;;;11.50;99.90;;;;;;4994404;28;20042;-87
2023/09/23 04:42:21;;;;;;;14.27;10.30;;;11.50;99.90;;;;;;5025101;28;20459;-88
2023/09/23 04:44:47;;;;;;;13.32;10.77;;;11.50;99.90;;;;;;5030421;28;20083;-86
2023/09/23 04:47:14;;;;;;;12.15;10.45;;;11.50;99.90;;;;;;5009691;28;20038;-88
2023/09/23 04:49:40;;;;;;;13.95;10.50;;;11.50;99.90;;;;;;5013441;28;20110;-87
2023/09/23 04:52:06;;;;;;;14.73;10.65;;;11.40;99.90;;;;;;5014185;28;20041;-88
2023/09/23 04:54:32;;;;;;;12.63;9.88;;;11.40;99.90;;;;;;5026972;28;20052;-87
2023/09/23 04:56:58;;;;;;;13.43;11.75;;;11.40;99.90;;;;;;4990086;28;20493;-88
2023/09/23 04:59:24;;;;;;;12.27;10.20;;;11.40;99.90;;;;;;5001165;28;20044;-89
2023/09/23 05:01:50;;;;;;;13.13;10.15;;;11.40;99.90;;;;;;5033447;28;20049;-86
2023/09/23 05:04:15;;;;;;;13.82;10.77;;;11.30;99.90;;;;;;5017593;28;20041;-88
2023/09/23 05:06:41;;;;;;;16.00;11.75;;;11.30;99.90;;;;;;5017639;28;20080;-86
2023/09/23 05:09:08;;;;;;;13.98;11.38;;;11.20;99.90;;;;;;5001607;28;20523;-87
2023/09/23 05:11:35;;;;;;;14.52;11.88;;;11.20;99.90;;;;;;5017714;28;20037;-86
2023/09/23 05:14:01;;;;;;;14.77;11.38;;;11.20;99.90;;;;;;5017646;28;20424;-89
2023/09/23 05:16:26;;;;;;;14.32;12.15;;;11.20;99.90;;;;;;5033781;28;20116;-87
2023/09/23 05:18:53;;;;;;;16.02;12.15;;;11.20;99.90;;;;;;5017168;28;20034;-88
2023/09/23 05:21:19;;;;;;;15.88;12.18;;;11.10;99.90;;;;;;5032861;28;20038;-88
2023/09/23 05:23:48;;;;;;;15.38;11.95;;;11.20;99.90;;;;;;4984785;28;20296;-88
2023/09/23 05:26:16;;;;;;;13.50;11.70;;;11.10;99.90;;;;;;5003092;28;20045;-88
2023/09/23 05:28:42;;;;;;;17.60;13.23;;;11.10;99.90;;;;;;5001112;28;20075;-88
2023/09/23 05:31:09;;;;;;;16.15;12.27;;;11.10;99.90;;;;;;5017968;28;20046;-88
2023/09/23 05:33:34;;;;;;;17.23;13.25;;;11.10;99.90;;;;;;5017869;28;20485;-88
2023/09/23 05:36:00;;;;;;;17.58;14.65;;;11.10;99.90;;;;;;5001160;28;20067;-87
2023/09/23 05:38:26;;;;;;;19.92;14.38;;;11.20;99.90;;;;;;5017265;28;20128;-87
2023/09/23 05:40:52;;;;;;;18.20;14.43;;;11.10;99.90;;;;;;5033853;28;20490;-88
2023/09/23 05:43:18;;;;;;;19.88;14.65;;;11.10;99.90;;;;;;5031182;28;20644;-87
2023/09/23 05:45:43;;;;;;;20.42;16.10;;;11.20;99.90;;;;;;5015589;28;20069;-86
2023/09/23 05:48:09;;;;;;;23.52;17.38;;;11.20;99.90;;;;;;5000640;28;20588;-88
2023/09/23 05:50:36;;;;;;;21.88;16.52;;;11.20;99.90;;;;;;5017124;28;20049;-88
2023/09/23 05:53:02;;;;;;;23.40;17.17;;;11.30;99.90;;;;;;5033602;28;20753;-86
2023/09/23 05:55:31;;;;;;;26.48;18.98;;;11.30;99.90;;;;;;5000707;28;20072;-88
2023/09/23 05:57:56;;;;;;;24.50;17.85;;;11.30;99.90;;;;;;5001276;28;20085;-84
2023/09/23 06:00:22;;;;;;;29.08;20.08;;;11.40;99.90;;;;;;5032857;28;20501;-87
2023/09/23 06:02:48;;;;;;;29.38;20.40;;;11.40;99.90;;;;;;5016485;28;20041;-86
2023/09/23 06:05:14;;;;;;;30.05;20.23;;;11.40;99.90;;;;;;5000104;28;20076;-87
2023/09/23 06:07:41;;;;;;;28.98;20.50;;;11.50;99.90;;;;;;4996044;28;20037;-87
2023/09/23 06:10:08;;;;;;;32.42;22.17;;;11.50;99.90;;;;;;5016547;28;20090;-88
2023/09/23 06:12:35;;;;;;;30.60;22.02;;;11.50;99.90;;;;;;5016491;28;20037;-89
2023/09/23 06:15:03;;;;;;;35.38;24.63;;;11.50;99.90;;;;;;5007702;28;20052;-87
2023/09/23 06:17:29;;;;;;;36.55;25.50;;;11.50;99.90;;;;;;5016657;28;20401;-85
2023/09/23 06:19:59;;;;;;;38.35;25.85;;;11.60;99.90;;;;;;5016567;28;20041;-88
2023/09/23 06:22:25;;;;;;;41.63;26.25;;;11.60;99.90;;;;;;5016217;28;20034;-87
2023/09/23 06:24:51;;;;;;;38.97;26.83;;;11.60;99.90;;;;;;5029813;28;20037;-87
2023/09/23 06:27:18;;;;;;;35.00;25.23;;;11.70;99.90;;;;;;5032830;28;20037;-86
2023/09/23 06:29:44;;;;;;;41.80;27.30;;;11.70;99.90;;;;;;5011256;28;20037;-86
2023/09/23 06:32:10;;;;;;;44.78;29.20;;;11.70;99.90;;;;;;5027694;28;20150;-87
2023/09/23 06:34:36;;;;;;;40.53;27.30;;;11.70;99.90;;;;;;5017031;28;20171;-89
2023/09/23 06:37:02;;;;;;;41.75;26.75;;;11.70;99.90;;;;;;5006234;28;20041;-86
2023/09/23 06:39:28;;;;;;;41.35;28.40;;;11.70;99.90;;;;;;5000041;28;20048;-86
2023/09/23 06:41:54;;;;;;;37.92;27.10;;;11.80;99.90;;;;;;5011987;28;20038;-79
2023/09/23 06:44:20;;;;;;;40.28;27.70;;;11.80;99.90;;;;;;4998080;28;20045;-79
2023/09/23 06:46:46;;;;;;;43.22;28.17;;;11.90;99.90;;;;;;5014146;28;20053;-79
2023/09/23 06:49:11;;;;;;;43.67;29.55;;;11.90;99.90;;;;;;5030484;28;20095;-80
2023/09/23 06:51:37;;;;;;;43.85;28.10;;;11.90;99.90;;;;;;5013663;28;20041;-79
2023/09/23 06:54:04;;;;;;;39.13;26.20;;;12.00;99.90;;;;;;4998123;28;20125;-79
2023/09/23 06:56:29;;;;;;;39.30;27.25;;;12.00;99.90;;;;;;4998434;28;20030;-80
2023/09/23 06:58:55;;;;;;;38.25;27.48;;;12.00;99.90;;;;;;4980209;28;20056;-79
2023/09/23 07:01:21;;;;;;;40.67;27.52;;;12.00;99.90;;;;;;4992921;28;20053;-79
2023/09/23 07:03:47;;;;;;;40.97;26.63;;;12.10;99.90;;;;;;4997951;28;20120;-80
2023/09/23 07:06:13;;;;;;;40.05;26.52;;;12.10;99.90;;;;;;4993745;28;20046;-79
2023/09/23 07:08:39;;;;;;;37.55;26.13;;;12.20;99.90;;;;;;5030866;28;20083;-78
2023/09/23 07:11:11;;;;;;;38.92;26.85;;;12.30;99.90;;;;;;5021842;28;20041;-79
2023/09/23 07:13:37;;;;;;;38.38;26.35;;;12.30;99.90;;;;;;5014240;28;20449;-79
2023/09/23 07:16:03;;;;;;;36.25;27.17;;;12.40;99.90;;;;;;4997755;28;20064;-79
2023/09/23 07:18:28;;;;;;;41.30;26.67;;;12.40;99.90;;;;;;5025303;28;20527;-78
2023/09/23 07:20:57;;;;;;;39.78;26.75;;;12.50;99.90;;;;;;4997705;28;20493;-80
2023/09/23 07:23:24;;;;;;;37.08;25.90;;;12.50;99.90;;;;;;4998072;28;20094;-79
2023/09/23 07:25:50;;;;;;;39.03;25.55;;;12.50;99.90;;;;;;5014027;28;20037;-79
2023/09/23 07:28:16;;;;;;;38.80;26.77;;;12.50;99.90;;;;;;4998065;28;20060;-79
2023/09/23 07:30:42;;;;;;;39.70;26.02;;;12.50;99.90;;;;;;5013390;28;20037;-79
2023/09/23 07:33:07;;;;;;;39.20;27.23;;;12.50;99.90;;;;;;4997114;28;20099;-79
2023/09/23 07:35:34;;;;;;;35.22;26.02;;;12.60;99.90;;;;;;4996572;28;20052;-79
2023/09/23 07:38:01;;;;;;;41.05;27.58;;;12.60;99.90;;;;;;4994680;28;20068;-80
2023/09/23 07:40:28;;;;;;;38.70;26.73;;;12.70;99.90;;;;;;5012727;28;20409;-79
2023/09/23 07:42:54;;;;;;;40.55;26.25;;;12.70;99.90;;;;;;5027605;28;20096;-79
2023/09/23 07:45:20;;;;;;;36.17;26.42;;;12.80;99.90;;;;;;5008501;28;20076;-80
2023/09/23 07:47:45;;;;;;;36.20;24.98;;;12.80;99.90;;;;;;4994519;28;20557;-79
2023/09/23 07:50:11;;;;;;;34.17;24.52;;;12.90;99.90;;;;;;5009469;28;20037;-79
2023/09/23 07:52:38;;;;;;;36.15;25.50;;;12.90;99.90;;;;;;4996228;28;20041;-79
2023/09/23 07:55:04;;;;;;;35.92;25.23;;;13.00;99.90;;;;;;5025315;28;20502;-79
2023/09/23 07:57:32;;;;;;;35.33;24.38;;;13.00;99.90;;;;;;5029588;28;20409;-79
2023/09/23 07:59:58;;;;;;;34.15;24.17;;;13.00;99.90;;;;;;4996484;28;20052;-80
2023/09/23 08:02:23;;;;;;;33.08;24.25;;;13.10;99.90;;;;;;5012890;28;20041;-79
2023/09/23 08:04:49;;;;;;;34.65;23.42;;;13.20;99.90;;;;;;4997336;28;20040;-79
2023/09/23 08:07:15;;;;;;;32.17;23.80;;;13.20;99.90;;;;;;4996863;28;20053;-79
2023/09/23 08:09:41;;;;;;;30.27;23.17;;;13.30;99.90;;;;;;5012762;28;20112;-79
2023/09/23 08:12:07;;;;;;;33.05;23.52;;;13.40;99.90;;;;;;5013319;28;20044;-80
2023/09/23 08:14:32;;;;;;;31.77;22.70;;;13.40;99.90;;;;;;4992439;28;20037;-80
2023/09/23 08:16:58;;;;;;;29.58;22.55;;;13.40;99.90;;;;;;4997053;28;20401;-80
2023/09/23 08:19:24;;;;;;;27.33;21.38;;;13.50;99.90;;;;;;4987882;28;20152;-80
2023/09/23 08:21:50;;;;;;;28.35;22.23;;;13.70;99.90;;;;;;5015274;28;20033;-79
2023/09/23 08:24:15;;;;;;;28.85;21.60;;;13.70;99.90;;;;;;5012965;28;20041;-79
2023/09/23 08:26:41;;;;;;;28.65;20.40;;;13.80;99.90;;;;;;5013275;28;20469;-79
2023/09/23 08:29:07;;;;;;;27.33;19.67;;;13.80;99.90;;;;;;4973235;28;20049;-80
2023/09/23 08:31:33;;;;;;;23.38;19.17;;;14.00;99.90;;;;;;5012700;28;20102;-80
2023/09/23 08:33:59;;;;;;;24.40;19.38;;;14.10;99.90;;;;;;4996658;28;20080;-79
2023/09/23 08:36:24;;;;;;;27.27;18.70;;;14.20;99.90;;;;;;5012735;28;20116;-79
2023/09/23 08:38:50;;;;;;;24.13;17.83;;;14.10;99.90;;;;;;4996094;28;20041;-81
2023/09/23 08:41:20;;;;;;;24.83;19.38;;;14.10;99.90;;;;;;5029349;28;20515;-80
2023/09/23 08:43:53;;;;;;;22.27;17.90;;;14.10;99.90;;;;;;5012653;28;20054;-80
2023/09/23 08:46:21;;;;;;;22.73;16.80;;;14.10;99.90;;;;;;5007135;28;20045;-80
2023/09/23 08:48:47;;;;;;;24.15;17.17;;;14.20;99.90;;;;;;5024865;28;20037;-80
2023/09/23 08:51:16;;;;;;;27.42;19.42;;;14.30;99.90;;;;;;5018763;28;20042;-80
2023/09/23 08:53:45;;;;;;;22.27;17.90;;;14.40;99.90;;;;;;5012015;28;20385;-79
2023/09/23 08:56:11;;;;;;;23.70;17.63;;;14.50;99.90;;;;;;5004195;28;20041;-78
2023/09/23 08:58:37;;;;;;;20.85;16.92;;;14.50;99.90;;;;;;5012293;28;20091;-79
2023/09/23 09:01:03;;;;;;;21.60;17.52;;;14.50;99.90;;;;;;5012316;28;20057;-79
2023/09/23 09:03:30;;;;;;;24.23;17.10;;;14.50;99.90;;;;;;5009583;28;20103;-80
2023/09/23 09:05:56;;;;;;;19.52;16.45;;;14.50;99.90;;;;;;4996800;28;20038;-80
2023/09/23 09:08:22;;;;;;;20.40;16.05;;;14.50;99.90;;;;;;5005005;28;20037;-80
2023/09/23 09:10:48;;;;;;;19.77;16.85;;;14.60;99.90;;;;;;5012348;28;20591;-79
2023/09/23 09:13:17;;;;;;;19.10;15.70;;;14.70;99.90;;;;;;5008883;28;20046;-80
2023/09/23 09:15:43;;;;;;;20.25;15.55;;;15.00;99.90;;;;;;5012702;28;20037;-80
2023/09/23 09:18:08;;;;;;;18.25;16.02;;;15.20;99.90;;;;;;4996500;28;20191;-80
2023/09/23 09:20:34;;;;;;;19.95;15.68;;;15.20;99.90;;;;;;4992970;28;20080;-80
2023/09/23 09:23:00;;;;;;;17.75;14.90;;;15.30;99.90;;;;;;5018502;28;20044;-80
2023/09/23 09:25:26;;;;;;;16.90;14.00;;;15.30;99.90;;;;;;5009413;28;20095;-80
2023/09/23 09:27:52;;;;;;;15.88;13.48;;;15.40;99.90;;;;;;4973085;28;20127;-80
2023/09/23 09:30:19;;;;;;;15.23;13.70;;;15.40;99.90;;;;;;5003777;28;20037;-79
2023/09/23 09:32:46;;;;;;;15.80;12.75;;;15.40;99.90;;;;;;5012357;28;20497;-79
2023/09/23 09:35:17;;;;;;;17.40;14.35;;;15.40;99.90;;;;;;5019947;28;20037;-80
2023/09/23 09:37:48;;;;;;;16.58;14.77;;;15.50;99.90;;;;;;4979896;28;20044;-79
2023/09/23 09:40:21;;;;;;;15.52;13.95;;;15.50;99.90;;;;;;5009637;28;20532;-80
2023/09/23 09:42:59;;;;;;;14.82;13.38;;;15.70;99.90;;;;;;5027270;28;20038;-81
2023/09/23 09:45:26;;;;;;;13.77;12.30;;;15.80;99.90;;;;;;5032761;28;20475;-79
2023/09/23 09:47:55;;;;;;;14.23;12.13;;;15.90;99.90;;;;;;4999892;28;20041;-79
2023/09/23 09:50:25;;;;;;;14.85;12.73;;;16.00;99.90;;;;;;5032316;28;20581;-80
2023/09/23 09:52:51;;;;;;;12.60;11.20;;;16.20;99.90;;;;;;5011551;28;20048;-79
2023/09/23 09:55:20;;;;;;;13.10;11.20;;;16.40;99.90;;;;;;4991496;28;20037;-79
2023/09/23 09:57:47;;;;;;;13.20;11.05;;;16.40;99.90;;;;;;5031121;28;20091;-80
2023/09/23 10:00:28;;;;;;;13.13;11.20;;;16.60;99.90;;;;;;5015464;28;20474;-80
2023/09/23 10:03:08;;;;;;;12.45;10.77;;;16.70;99.90;;;;;;5000086;28;20038;-80
2023/09/23 10:05:35;;;;;;;11.20;9.93;;;16.80;99.90;;;;;;5006383;28;20034;-79
2023/09/23 10:08:13;;;;;;;10.40;9.38;;;16.80;99.90;;;;;;5004899;28;20489;-81
2023/09/23 10:10:44;;;;;;;10.88;9.10;;;17.00;99.90;;;;;;5031413;28;20042;-81
2023/09/23 10:13:17;;;;;;;10.40;9.25;;;17.00;99.90;;;;;;5013069;28;20041;-80
2023/09/23 10:15:43;;;;;;;11.52;10.30;;;16.90;99.90;;;;;;5031366;28;20029;-79
2023/09/23 10:18:17;;;;;;;10.50;8.48;;;16.60;99.90;;;;;;4998727;28;20167;-80
2023/09/23 10:20:51;;;;;;;11.07;9.07;;;16.50;99.90;;;;;;4997690;28;20045;-79
2023/09/23 10:23:19;;;;;;;10.10;9.10;;;16.40;99.90;;;;;;5027232;28;20099;-81
2023/09/23 10:25:46;;;;;;;10.57;9.57;;;16.30;99.90;;;;;;5031152;28;20046;-80
2023/09/23 10:28:22;;;;;;;11.55;9.68;;;16.20;99.90;;;;;;5007270;28;20046;-81
2023/09/23 10:30:58;;;;;;;10.98;8.45;;;16.20;99.90;;;;;;5013134;28;20179;-79
2023/09/23 10:33:26;;;;;;;11.05;9.40;;;16.10;99.90;;;;;;5031474;28;20048;-80
2023/09/23 10:35:53;;;;;;;11.38;10.38;;;16.10;99.90;;;;;;4995930;28;20109;-80
2023/09/23 10:38:28;;;;;;;11.15;9.90;;;16.10;99.90;;;;;;5002078;28;20033;-80
2023/09/23 10:40:54;;;;;;;12.27;8.32;;;16.10;99.90;;;;;;5012481;28;20041;-80
2023/09/23 10:43:23;;;;;;;8.88;7.82;;;16.20;99.90;;;;;;5013239;28;20505;-79
2023/09/23 10:46:01;;;;;;;8.55;7.50;;;16.30;99.90;;;;;;5029898;28;20174;-80
2023/09/23 10:48:28;;;;;;;8.35;7.53;;;16.40;99.90;;;;;;4978211;28;20037;-79
2023/09/23 10:50:54;;;;;;;7.80;6.00;;;16.60;99.90;;;;;;4998016;28;20771;-79
2023/09/23 10:53:21;;;;;;;6.80;6.07;;;16.80;99.90;;;;;;4996892;28;20045;-79
2023/09/23 10:55:47;;;;;;;8.60;6.20;;;16.70;99.90;;;;;;5007583;28;20046;-79
2023/09/23 10:58:13;;;;;;;8.05;6.75;;;16.60;99.90;;;;;;5012674;28;20065;-80
2023/09/23 11:00:41;;;;;;;6.82;6.20;;;16.50;99.90;;;;;;5009117;28;20143;-79
2023/09/23 11:03:21;;;;;;;7.78;6.93;;;16.50;99.90;;;;;;5013570;28;20096;-79
2023/09/23 11:05:47;;;;;;;7.53;6.80;;;16.60;99.90;;;;;;4995995;28;20040;-80
2023/09/23 11:08:15;;;;;;;8.63;6.65;;;16.60;99.90;;;;;;4990966;28;20100;-80
2023/09/23 11:10:42;;;;;;;8.05;6.38;;;16.60;99.90;;;;;;4991666;28;20041;-79
2023/09/23 11:13:10;;;;;;;6.93;6.28;;;16.50;99.90;;;;;;5013591;28;20077;-79
2023/09/23 11:15:39;;;;;;;7.28;5.45;;;16.50;99.90;;;;;;5022447;28;20048;-80
2023/09/23 11:18:16;;;;;;;7.13;6.40;;;16.40;99.90;;;;;;5030699;28;20132;-79
2023/09/23 11:20:46;;;;;;;5.07;4.68;;;16.30;99.90;;;;;;5018908;28;20038;-80
2023/09/23 11:23:13;;;;;;;5.53;4.40;;;16.30;99.90;;;;;;5012541;28;20129;-80
2023/09/23 11:25:44;;;;;;;5.38;4.70;;;16.20;99.90;;;;;;5005315;28;20037;-79
2023/09/23 11:28:27;;;;;;;6.78;4.35;;;16.20;99.90;;;;;;5023767;28;20046;-79
2023/09/23 11:30:55;;;;;;;7.88;4.43;;;16.20;99.90;;;;;;5012225;28;20045;-79
2023/09/23 11:33:24;;;;;;;4.88;3.38;;;16.20;99.90;;;;;;5011744;28;20049;-79
2023/09/23 11:35:51;;;;;;;4.18;3.60;;;16.30;99.90;;;;;;5009207;28;20049;-80
2023/09/23 11:38:20;;;;;;;6.70;3.63;;;16.30;99.90;;;;;;5014069;28;20505;-80
2023/09/23 11:40:47;;;;;;;6.43;3.97;;;16.40;99.90;;;;;;5012632;28;20038;-80
2023/09/23 11:43:12;;;;;;;5.05;3.60;;;16.40;99.90;;;;;;5007892;28;20065;-81
2023/09/23 11:45:41;;;;;;;4.90;3.30;;;16.40;99.90;;;;;;5028552;28;20464;-81
2023/09/23 11:48:08;;;;;;;6.07;3.40;;;16.40;99.90;;;;;;5013766;28;20045;-80
2023/09/23 11:50:35;;;;;;;5.03;3.78;;;16.40;99.90;;;;;;5013585;28;20045;-80
2023/09/23 11:53:00;;;;;;;5.70;3.38;;;16.50;99.90;;;;;;5007837;28;20045;-80
2023/09/23 11:55:27;;;;;;;4.93;4.25;;;16.60;99.90;;;;;;5009405;28;20045;-80
2023/09/23 11:57:54;;;;;;;7.47;5.00;;;16.50;99.90;;;;;;5013383;28;20497;-79
2023/09/23 12:00:20;;;;;;;7.43;4.95;;;16.60;99.90;;;;;;5029807;28;20058;-80
2023/09/23 12:02:48;;;;;;;4.55;3.97;;;16.60;99.90;;;;;;5023086;28;20583;-79
2023/09/23 12:05:16;;;;;;;4.80;3.97;;;16.70;99.90;;;;;;5044729;28;20053;-79
2023/09/23 12:07:43;;;;;;;4.70;4.30;;;16.70;99.90;;;;;;5005790;28;20030;-80
2023/09/23 12:10:10;;;;;;;4.63;3.80;;;16.80;99.90;;;;;;4995744;28;20049;-80
2023/09/23 12:12:38;;;;;;;8.52;4.03;;;16.80;99.90;;;;;;5003539;28;20103;-80
2023/09/23 12:15:05;;;;;;;6.32;3.55;;;16.90;99.90;;;;;;4996925;28;20120;-81
2023/09/23 12:17:31;;;;;;;5.35;2.95;;;17.00;99.90;;;;;;5011209;28;20045;-80
2023/09/23 12:19:57;;;;;;;5.10;2.97;;;17.10;99.90;;;;;;4997129;28;20045;-79
2023/09/23 12:22:22;;;;;;;2.80;2.50;;;17.20;99.90;;;;;;5025870;28;20508;-80
2023/09/23 12:24:49;;;;;;;3.75;2.60;;;17.10;99.90;;;;;;5014862;28;20086;-80
2023/09/23 12:27:15;;;;;;;4.38;2.65;;;17.00;99.90;;;;;;4992301;28;20095;-79
2023/09/23 12:29:41;;;;;;;5.38;2.80;;;17.00;99.90;;;;;;5033935;28;20481;-81
2023/09/23 12:32:07;;;;;;;4.85;2.50;;;16.90;99.90;;;;;;5006887;28;20045;-79
2023/09/23 12:34:32;;;;;;;3.20;2.38;;;16.80;99.90;;;;;;5021394;28;20500;-79
2023/09/23 12:36:58;;;;;;;3.67;2.78;;;16.80;99.90;;;;;;5028672;28;20120;-79
2023/09/23 12:39:24;;;;;;;3.33;2.70;;;16.80;99.90;;;;;;5011440;28;20069;-79